[ ตารางข้อมูล ] [ Min-Max ] [ วันนี้2 ] [ วันนี้4 ] [ เทียบ-A 3วัน ] [ เทียบ-B 4วัน ]   

วันนี้4   [ ◀ ช่วงเก่ากว่า ] [ ช่วงที่ 29 ] [ ช่วงใหม่กว่า ▶ ] [ ล่าสุด ]    [ 3 ชั่วโมง ] [ 6 ชั่วโมง ] [ 12 ชั่วโมง ] [ 24 ชั่วโมง ]   วันนี้4

อุณภูมิในตู้ Knockdown4529  ราย 24 ชั่วโมง  ที่วัดได้ ในช่วงวันเวลา 04/08/2026 (05:01) ถึง 05/08/2026 (05:01) 
ความชื้นในตู้ Knockdown4529  ราย 24 ชั่วโมง  ที่วัดได้ ในช่วงวันเวลา 04/08/2026 (05:01) ถึง 05/08/2026 (05:01) 
การใช้ไฟฟ้าในตู้ Knockdown4529  ราย 24 ชั่วโมง  ที่วัดได้ ในช่วงวันเวลา 04/08/2026 (05:01) ถึง 05/08/2026 (05:01) 

  DS18B20SHTC3PZEM-004TWiFi 
IDDate d/m/Y & Timedata1
สูง
data2
ต่ำ
data3
นอก
temp
pcb
hum
pcb
VoltAmpWattrssiTime
 9685  05/08/2026 04:58:26  28.4  28.6  26.0  29.4  68.7  231.4  0.03  4.4  -77  04:58 
 9684  05/08/2026 04:53:40  28.4  28.6  26.1  29.4  68.4  231.0  0.04  4.4  -77  04:53 
 9683  05/08/2026 04:48:58  28.4  28.6  26.1  29.3  68.5  232.1  0.04  4.4  -76  04:48 
 9682  05/08/2026 04:44:14  28.4  28.6  25.9  29.4  68.5  230.1  0.04  4.4  -78  04:44 
 9681  05/08/2026 04:39:31  28.4  28.6  25.8  29.4  68.5  232.6  0.04  4.4  -77  04:39 
 9680  05/08/2026 04:34:48  28.4  28.6  25.9  29.5  68.3  230.3  0.04  4.4  -77  04:34 
 9679  05/08/2026 04:30:05  28.5  28.6  26.0  29.4  68.3  231.8  0.04  4.4  -77  04:30 
 9678  05/08/2026 04:25:22  28.5  28.7  26.0  29.4  68.4  230.4  0.04  4.4  -75  04:25 
 9677  05/08/2026 04:20:37  28.5  28.7  26.4  29.6  68.2  230.1  0.04  4.4  -77  04:20 
 9676  05/08/2026 04:15:54  28.5  28.7  26.4  29.5  68.4  232.6  0.04  4.4  -78  04:15 
 9675  05/08/2026 04:11:10  28.6  28.7  26.4  29.6  68.3  229.5  0.04  4.4  -77  04:11 
 9674  05/08/2026 04:06:27  28.6  28.8  26.4  29.4  68.3  232.9  0.04  4.4  -76  04:06 
 9673  05/08/2026 04:01:44  28.6  28.8  26.5  29.4  68.2  230.1  0.04  4.4  -77  04:01 
 9672  05/08/2026 03:57:01  28.6  28.8  26.4  29.5  68.3  231.5  0.04  4.4  -76  03:57 
 9671  05/08/2026 03:52:18  28.6  28.8  26.4  29.4  68.3  232.2  0.04  4.4  -75  03:52 
 9670  05/08/2026 03:47:34  28.6  28.8  26.4  29.7  68.2  231.1  0.04  4.4  -76  03:47 
 9669  05/08/2026 03:42:51  28.7  28.8  26.5  29.7  68.3  230.0  0.04  4.4  -79  03:42 
 9668  05/08/2026 03:38:08  28.7  28.8  26.5  29.6  68.2  232.9  0.04  4.4  -76  03:38 
 9667  05/08/2026 03:33:25  28.7  28.8  26.5  29.7  68.3  231.5  0.04  4.4  -76  03:33 
 9666  05/08/2026 03:28:42  28.7  28.9  26.5  29.8  68.1  230.5  0.04  4.4  -76  03:28 
 9665  05/08/2026 03:23:59  28.8  28.9  26.7  29.7  68.3  232.3  0.04  4.4  -78  03:23 
 9664  05/08/2026 03:19:16  28.8  28.9  26.9  29.8  68.1  231.2  0.04  4.4  -78  03:19 
 9663  05/08/2026 03:14:33  28.8  28.9  26.9  29.6  68.2  232.3  0.04  4.4  -78  03:14 
 9662  05/08/2026 03:09:50  28.8  28.9  26.9  29.8  68.1  232.8  0.04  4.4  -77  03:09 

Data every 5 minute.


ใช้เวลาประมวลผล 0.01652 วินาที